createdAt,value
2022-07-30T00:01:21.836Z,4.90
2022-07-30T00:03:48.288Z,5.08
2022-07-30T00:06:14.707Z,4.87
2022-07-30T00:08:41.070Z,4.90
2022-07-30T00:11:07.450Z,4.54
2022-07-30T00:13:33.811Z,4.81
2022-07-30T00:16:00.182Z,4.57
2022-07-30T00:18:26.560Z,4.69
2022-07-30T00:20:52.916Z,4.41
2022-07-30T00:23:19.273Z,4.83
2022-07-30T00:25:45.627Z,4.72
2022-07-30T00:28:11.990Z,4.42
2022-07-30T00:30:38.372Z,4.66
2022-07-30T00:33:04.771Z,4.45
2022-07-30T00:35:34.562Z,4.48
2022-07-30T00:38:00.934Z,4.56
2022-07-30T00:40:27.299Z,4.47
2022-07-30T00:42:53.679Z,4.69
2022-07-30T00:45:20.044Z,4.42
2022-07-30T00:47:46.394Z,4.61
2022-07-30T00:50:12.755Z,4.39
2022-07-30T00:52:39.121Z,4.56
2022-07-30T00:55:05.490Z,4.43
2022-07-30T00:57:31.860Z,4.45
2022-07-30T00:59:58.221Z,4.26
2022-07-30T01:02:24.609Z,4.28
2022-07-30T01:04:50.984Z,4.49
2022-07-30T01:07:19.132Z,4.40
2022-07-30T01:09:48.481Z,4.12
2022-07-30T01:12:15.027Z,4.33
2022-07-30T01:14:41.406Z,4.31
2022-07-30T01:17:07.763Z,4.20
2022-07-30T01:19:34.146Z,4.23
2022-07-30T01:22:00.506Z,4.43
2022-07-30T01:24:26.879Z,4.30
2022-07-30T01:26:53.242Z,3.86
2022-07-30T01:29:19.599Z,4.29
2022-07-30T01:31:46.013Z,4.32
2022-07-30T01:34:12.396Z,4.42
2022-07-30T01:36:38.748Z,4.24
2022-07-30T01:39:05.144Z,4.24
2022-07-30T01:41:31.505Z,4.29
2022-07-30T01:43:57.872Z,4.25
2022-07-30T01:46:24.261Z,4.44
2022-07-30T01:48:50.736Z,4.57
2022-07-30T01:51:17.143Z,4.73
2022-07-30T01:53:43.508Z,3.99
2022-07-30T01:56:10.771Z,4.50
2022-07-30T01:58:37.754Z,4.47
2022-07-30T02:01:04.217Z,4.35
2022-07-30T02:03:31.770Z,4.55
2022-07-30T02:05:58.193Z,4.43
2022-07-30T02:08:24.554Z,4.42
2022-07-30T02:10:50.909Z,4.47
2022-07-30T02:13:17.278Z,4.44
2022-07-30T02:15:43.651Z,4.70
2022-07-30T02:18:10.040Z,4.54
2022-07-30T02:20:38.439Z,4.53
2022-07-30T02:23:05.555Z,4.51
2022-07-30T02:25:31.930Z,4.21
2022-07-30T02:27:58.302Z,4.61
2022-07-30T02:30:24.665Z,4.54
2022-07-30T02:32:51.023Z,4.63
2022-07-30T02:35:17.382Z,4.58
2022-07-30T02:37:44.459Z,4.42
2022-07-30T02:40:10.934Z,4.67
2022-07-30T02:42:37.293Z,4.53
2022-07-30T02:45:03.658Z,4.39
2022-07-30T02:47:30.021Z,4.59
2022-07-30T02:49:56.404Z,4.45
2022-07-30T02:52:22.764Z,4.65
2022-07-30T02:54:49.130Z,4.46
2022-07-30T02:57:15.482Z,4.61
2022-07-30T02:59:41.843Z,4.44
2022-07-30T03:02:08.277Z,4.75
2022-07-30T03:04:34.834Z,4.27
2022-07-30T03:07:06.228Z,4.48
2022-07-30T03:09:50.960Z,4.52
2022-07-30T03:12:18.667Z,4.70
2022-07-30T03:14:45.028Z,4.34
2022-07-30T03:17:11.398Z,4.28
2022-07-30T03:19:37.761Z,4.46
2022-07-30T03:22:04.117Z,4.13
2022-07-30T03:24:30.519Z,4.18
2022-07-30T03:26:56.921Z,4.49
2022-07-30T03:29:23.325Z,4.26
2022-07-30T03:31:49.766Z,4.23
2022-07-30T03:34:16.201Z,4.16
2022-07-30T03:36:42.642Z,4.30
2022-07-30T03:39:09.017Z,4.60
2022-07-30T03:41:35.377Z,4.36
2022-07-30T03:44:02.297Z,4.36
2022-07-30T03:46:28.692Z,4.20
2022-07-30T03:48:55.125Z,4.49
2022-07-30T03:51:21.505Z,4.17
2022-07-30T03:53:47.856Z,4.00
2022-07-30T03:56:15.072Z,4.18
2022-07-30T03:58:41.450Z,4.01
2022-07-30T04:01:07.824Z,4.08
2022-07-30T04:03:34.235Z,4.09
2022-07-30T04:06:00.630Z,3.85
2022-07-30T04:08:26.997Z,3.79
2022-07-30T04:10:53.364Z,3.84
2022-07-30T04:13:19.728Z,3.87
2022-07-30T04:16:05.714Z,3.60
2022-07-30T04:18:32.437Z,3.70
2022-07-30T04:20:58.800Z,3.57
2022-07-30T04:23:25.147Z,3.80
2022-07-30T04:25:51.514Z,3.57
2022-07-30T04:28:17.882Z,3.57
2022-07-30T04:30:44.233Z,3.39
2022-07-30T04:33:10.597Z,3.41
2022-07-30T04:35:51.114Z,3.49
2022-07-30T04:38:18.506Z,3.67
2022-07-30T04:40:44.863Z,3.57
2022-07-30T04:43:11.220Z,3.76
2022-07-30T04:45:37.593Z,3.61
2022-07-30T04:48:03.944Z,3.60
2022-07-30T04:50:30.300Z,3.78
2022-07-30T04:52:56.672Z,3.35
2022-07-30T04:55:23.047Z,3.84
2022-07-30T04:57:49.408Z,3.44
2022-07-30T05:00:15.774Z,3.57
2022-07-30T05:02:42.130Z,3.42
2022-07-30T05:05:08.569Z,3.73
2022-07-30T05:07:34.955Z,3.74
2022-07-30T05:10:01.320Z,3.60
2022-07-30T05:12:27.672Z,3.92
2022-07-30T05:14:54.042Z,4.66
2022-07-30T05:17:20.408Z,4.70
2022-07-30T05:19:46.778Z,4.86
2022-07-30T05:22:14.728Z,4.80
2022-07-30T05:24:41.093Z,4.91
2022-07-30T05:27:07.465Z,5.08
2022-07-30T05:29:33.839Z,4.93
2022-07-30T05:32:02.763Z,4.82
2022-07-30T05:34:30.060Z,5.06
2022-07-30T05:36:56.421Z,5.06
2022-07-30T05:39:22.796Z,4.94
2022-07-30T05:41:49.179Z,5.10
2022-07-30T05:44:15.544Z,5.32
2022-07-30T05:46:41.956Z,5.33
2022-07-30T05:49:08.431Z,6.73
2022-07-30T05:51:34.835Z,8.45
2022-07-30T05:54:01.209Z,9.06
2022-07-30T05:56:27.569Z,8.94
2022-07-30T05:58:53.933Z,8.62
2022-07-30T06:01:20.325Z,9.08
2022-07-30T06:03:46.714Z,9.66
2022-07-30T06:06:13.075Z,9.64
2022-07-30T06:08:39.428Z,9.30
2022-07-30T06:11:05.790Z,9.23
2022-07-30T06:13:32.166Z,8.98
2022-07-30T06:15:58.599Z,9.01
2022-07-30T06:18:25.002Z,8.77
2022-07-30T06:20:51.364Z,9.10
2022-07-30T06:23:17.721Z,8.90
2022-07-30T06:25:44.090Z,8.43
2022-07-30T06:28:27.855Z,8.35
2022-07-30T06:30:56.808Z,8.49
2022-07-30T06:33:23.193Z,8.81
2022-07-30T06:35:49.552Z,8.32
2022-07-30T06:38:15.925Z,8.38
2022-07-30T06:40:42.297Z,8.50
2022-07-30T06:43:08.673Z,8.87
2022-07-30T06:45:35.047Z,8.35
2022-07-30T06:48:01.417Z,8.64
2022-07-30T06:50:27.895Z,8.68
2022-07-30T06:52:54.310Z,8.44
2022-07-30T06:55:20.673Z,8.46
2022-07-30T06:57:47.032Z,8.64
2022-07-30T07:00:13.394Z,8.13
2022-07-30T07:02:39.748Z,8.20
2022-07-30T07:05:06.113Z,8.11
2022-07-30T07:07:41.902Z,8.16
2022-07-30T07:10:10.753Z,8.40
2022-07-30T07:12:37.136Z,8.03
2022-07-30T07:15:03.503Z,8.14
2022-07-30T07:17:29.875Z,8.10
2022-07-30T07:20:01.647Z,7.88
2022-07-30T07:22:28.810Z,7.98
2022-07-30T07:24:55.188Z,8.20
2022-07-30T07:27:21.535Z,8.37
2022-07-30T07:30:01.891Z,8.06
2022-07-30T07:32:32.207Z,8.08
2022-07-30T07:34:58.568Z,8.01
2022-07-30T07:37:24.930Z,7.50
2022-07-30T07:39:51.299Z,8.03
2022-07-30T07:42:17.657Z,8.00
2022-07-30T07:44:44.007Z,7.88
2022-07-30T07:47:10.370Z,7.77
2022-07-30T07:49:36.747Z,7.93
2022-07-30T07:52:03.110Z,8.41
2022-07-30T07:54:29.477Z,7.99
2022-07-30T07:56:55.834Z,8.14
2022-07-30T07:59:22.192Z,7.59
2022-07-30T08:01:49.977Z,7.81
2022-07-30T08:04:16.397Z,7.83
2022-07-30T08:06:42.751Z,7.59
2022-07-30T08:09:09.549Z,7.56
2022-07-30T08:11:35.909Z,7.55
2022-07-30T08:14:02.271Z,7.23
2022-07-30T08:16:28.716Z,8.07
2022-07-30T08:18:55.112Z,8.01
2022-07-30T08:21:21.463Z,7.62
2022-07-30T08:23:47.825Z,7.74
2022-07-30T08:26:14.199Z,7.66
2022-07-30T08:28:40.548Z,7.26
2022-07-30T08:31:06.906Z,7.36
2022-07-30T08:33:33.661Z,7.52
2022-07-30T08:36:04.159Z,7.51
2022-07-30T08:38:35.722Z,7.69
2022-07-30T08:41:02.081Z,7.49
2022-07-30T08:43:28.455Z,7.81
2022-07-30T08:45:54.820Z,7.46
2022-07-30T08:48:21.185Z,7.50
2022-07-30T08:50:47.545Z,7.45
2022-07-30T08:53:13.918Z,7.37
2022-07-30T08:55:40.289Z,6.89
2022-07-30T08:58:06.637Z,7.27
2022-07-30T09:00:33.015Z,6.79
2022-07-30T09:02:59.380Z,7.11
2022-07-30T09:05:25.736Z,7.16
2022-07-30T09:07:52.083Z,7.23
2022-07-30T09:10:18.543Z,7.08
2022-07-30T09:12:44.934Z,6.79
2022-07-30T09:15:11.288Z,6.60
2022-07-30T09:17:37.643Z,6.84
2022-07-30T09:20:03.994Z,6.85
2022-07-30T09:22:31.422Z,6.80
2022-07-30T09:24:57.804Z,6.68
2022-07-30T09:27:24.155Z,7.14
2022-07-30T09:29:50.518Z,6.74
2022-07-30T09:32:16.880Z,6.84
2022-07-30T09:34:43.242Z,7.19
2022-07-30T09:37:09.595Z,7.13
2022-07-30T09:39:35.958Z,6.90
2022-07-30T09:42:02.617Z,6.91
2022-07-30T09:44:29.294Z,6.63
2022-07-30T09:46:55.670Z,6.79
2022-07-30T09:49:22.097Z,6.52
2022-07-30T09:51:54.559Z,6.45
2022-07-30T09:54:23.527Z,6.83
2022-07-30T09:56:53.656Z,6.60
2022-07-30T09:59:20.510Z,6.38
2022-07-30T10:01:51.075Z,6.69
2022-07-30T10:04:22.743Z,6.28
2022-07-30T10:06:49.104Z,5.99
2022-07-30T10:09:16.427Z,6.57
2022-07-30T10:11:43.324Z,5.95
2022-07-30T10:14:09.682Z,6.18
2022-07-30T10:16:36.050Z,5.99
2022-07-30T10:19:02.411Z,5.93
2022-07-30T10:21:32.476Z,5.97
2022-07-30T10:24:02.297Z,6.17
2022-07-30T10:26:28.650Z,6.16
2022-07-30T10:28:55.539Z,6.14
2022-07-30T10:31:48.889Z,6.16
2022-07-30T10:34:08.282Z,6.34
2022-07-30T10:36:38.020Z,5.81
2022-07-30T10:39:04.394Z,6.03
2022-07-30T10:41:43.164Z,5.78
2022-07-30T10:44:15.765Z,6.01
2022-07-30T10:46:42.250Z,5.84
2022-07-30T10:49:11.753Z,5.98
2022-07-30T10:51:46.508Z,6.01
2022-07-30T10:54:13.060Z,5.56
2022-07-30T10:56:39.419Z,5.34
2022-07-30T10:59:07.904Z,5.56
2022-07-30T11:01:34.466Z,5.83
2022-07-30T11:04:02.981Z,5.79
2022-07-30T11:06:29.449Z,5.85
2022-07-30T11:08:57.128Z,5.89
2022-07-30T11:11:59.518Z,5.62
2022-07-30T11:14:10.135Z,5.52
2022-07-30T11:16:37.019Z,5.82
2022-07-30T11:19:27.478Z,5.65
2022-07-30T11:21:49.886Z,5.54
2022-07-30T11:24:16.249Z,5.60
2022-07-30T11:26:48.554Z,5.86
2022-07-30T11:29:14.910Z,5.50
2022-07-30T11:31:56.922Z,5.34
2022-07-30T11:34:26.089Z,5.69
2022-07-30T11:36:52.528Z,5.93
2022-07-30T11:39:18.916Z,5.67
2022-07-30T11:41:48.259Z,5.54
2022-07-30T11:44:14.617Z,5.76
2022-07-30T11:46:40.975Z,5.62
2022-07-30T11:49:08.845Z,5.36
2022-07-30T11:51:35.355Z,5.37
2022-07-30T11:54:01.722Z,5.44
2022-07-30T11:56:28.283Z,5.40
2022-07-30T11:58:54.642Z,5.65
2022-07-30T12:01:21.008Z,5.73
2022-07-30T12:03:47.363Z,5.39
2022-07-30T12:06:13.732Z,5.32
2022-07-30T12:08:40.122Z,5.36
2022-07-30T12:11:06.479Z,5.47
2022-07-30T12:13:43.819Z,5.63
2022-07-30T12:16:12.260Z,5.33
2022-07-30T12:18:38.620Z,5.10
2022-07-30T12:21:04.997Z,5.33
2022-07-30T12:23:31.344Z,5.16
2022-07-30T12:25:58.126Z,5.38
2022-07-30T12:28:24.555Z,5.14
2022-07-30T12:30:50.916Z,5.40
2022-07-30T12:33:17.281Z,5.31
2022-07-30T12:35:43.646Z,5.38
2022-07-30T12:38:10.001Z,5.47
2022-07-30T12:40:36.372Z,5.27
2022-07-30T12:43:02.736Z,5.33
2022-07-30T12:45:29.096Z,5.17
2022-07-30T12:47:55.469Z,5.26
2022-07-30T12:50:21.827Z,5.31
2022-07-30T12:52:48.375Z,5.05
2022-07-30T12:55:14.746Z,5.29
2022-07-30T12:57:41.104Z,4.95
2022-07-30T13:00:07.460Z,5.32
2022-07-30T13:02:33.829Z,5.09
2022-07-30T13:05:11.467Z,5.60
2022-07-30T13:07:38.371Z,5.02
2022-07-30T13:10:04.745Z,4.90
2022-07-30T13:12:31.110Z,5.05
2022-07-30T13:14:57.516Z,4.89
2022-07-30T13:17:23.874Z,4.82
2022-07-30T13:19:50.266Z,4.52
2022-07-30T13:22:16.621Z,4.69
2022-07-30T13:24:42.980Z,4.96
2022-07-30T13:27:09.353Z,4.96
2022-07-30T13:29:35.724Z,4.71
2022-07-30T13:32:02.075Z,4.71
2022-07-30T13:34:28.466Z,4.86
2022-07-30T13:36:54.845Z,4.66
2022-07-30T13:39:21.200Z,4.84
2022-07-30T13:41:47.556Z,4.62
2022-07-30T13:44:13.913Z,4.73
2022-07-30T13:46:41.441Z,4.85
2022-07-30T13:49:07.985Z,4.80
2022-07-30T13:51:34.413Z,4.79
2022-07-30T13:54:00.776Z,4.81
2022-07-30T13:56:27.150Z,4.55
2022-07-30T13:58:53.840Z,4.62
2022-07-30T14:01:20.248Z,4.58
2022-07-30T14:03:50.111Z,4.82
2022-07-30T14:06:17.317Z,4.57
2022-07-30T14:08:43.676Z,4.49
2022-07-30T14:11:10.049Z,4.44
2022-07-30T14:13:36.410Z,4.34
2022-07-30T14:16:02.756Z,4.78
2022-07-30T14:18:29.120Z,4.76
2022-07-30T14:20:55.480Z,4.58
2022-07-30T14:23:21.835Z,4.46
2022-07-30T14:25:48.193Z,4.34
2022-07-30T14:28:14.559Z,4.57
2022-07-30T14:30:40.917Z,4.27
2022-07-30T14:33:07.276Z,4.41
2022-07-30T14:35:33.624Z,4.48
2022-07-30T14:37:59.997Z,4.18
2022-07-30T14:40:26.363Z,4.30
2022-07-30T14:42:52.713Z,4.30
2022-07-30T14:45:22.636Z,4.29
2022-07-30T14:47:48.995Z,4.24
2022-07-30T14:50:15.346Z,4.54
2022-07-30T14:52:41.696Z,4.22
2022-07-30T14:55:08.709Z,4.32
2022-07-30T14:57:35.072Z,4.22
2022-07-30T15:00:01.464Z,4.15
2022-07-30T15:02:27.831Z,4.34
2022-07-30T15:04:54.199Z,4.08
2022-07-30T15:07:20.572Z,4.28
2022-07-30T15:09:46.987Z,4.45
2022-07-30T15:12:13.352Z,4.51
2022-07-30T15:14:48.108Z,4.45
2022-07-30T15:17:14.516Z,4.26
2022-07-30T15:19:50.324Z,4.00
2022-07-30T15:22:17.656Z,4.12
2022-07-30T15:24:44.025Z,4.02
2022-07-30T15:27:10.385Z,4.14
2022-07-30T15:29:36.735Z,4.32
2022-07-30T15:32:03.332Z,4.21
2022-07-30T15:34:29.786Z,4.08
2022-07-30T15:36:56.143Z,4.16
2022-07-30T15:39:22.919Z,4.26
2022-07-30T15:41:49.271Z,3.97
2022-07-30T15:44:19.512Z,3.90
2022-07-30T15:46:46.439Z,4.14
2022-07-30T15:49:12.869Z,4.28
2022-07-30T15:51:39.268Z,4.20
2022-07-30T15:54:05.637Z,4.11
2022-07-30T15:56:31.998Z,4.21
2022-07-30T15:58:58.369Z,4.19
2022-07-30T16:01:24.798Z,3.75
2022-07-30T16:03:51.219Z,3.96
2022-07-30T16:06:17.586Z,3.90
2022-07-30T16:08:43.963Z,3.85
2022-07-30T16:11:10.960Z,3.96
2022-07-30T16:13:37.555Z,3.83
2022-07-30T16:16:03.955Z,4.01
2022-07-30T16:18:30.335Z,3.93
2022-07-30T16:20:56.680Z,3.88
2022-07-30T16:23:23.050Z,4.03
2022-07-30T16:25:49.400Z,3.94
2022-07-30T16:28:15.774Z,4.01
2022-07-30T16:30:50.997Z,3.86
2022-07-30T16:33:17.517Z,3.87
2022-07-30T16:35:49.026Z,3.87
2022-07-30T16:38:17.702Z,3.75
2022-07-30T16:40:44.062Z,3.80
2022-07-30T16:43:10.442Z,3.49
2022-07-30T16:45:36.812Z,3.98
2022-07-30T16:48:03.173Z,3.84
2022-07-30T16:50:29.534Z,3.69
2022-07-30T16:52:55.892Z,4.03
2022-07-30T16:55:22.273Z,3.68
2022-07-30T16:57:48.638Z,3.81
2022-07-30T17:00:15.000Z,3.78
2022-07-30T17:02:41.376Z,3.80
2022-07-30T17:05:11.937Z,3.68
2022-07-30T17:07:39.985Z,3.67
2022-07-30T17:10:06.352Z,3.64
2022-07-30T17:12:37.508Z,3.73
2022-07-30T17:15:03.868Z,3.68
2022-07-30T17:17:30.230Z,3.65
2022-07-30T17:19:56.587Z,3.93
2022-07-30T17:22:22.944Z,3.69
2022-07-30T17:24:49.296Z,3.69
2022-07-30T17:27:15.661Z,3.55
2022-07-30T17:29:49.970Z,3.62
2022-07-30T17:32:17.094Z,3.71
2022-07-30T17:34:43.450Z,3.58
2022-07-30T17:37:09.812Z,3.61
2022-07-30T17:40:27.149Z,3.77
2022-07-30T17:42:22.513Z,3.83
2022-07-30T17:44:48.875Z,3.45
2022-07-30T17:47:16.480Z,3.36
2022-07-30T17:49:42.992Z,3.57
2022-07-30T17:52:09.374Z,3.56
2022-07-30T17:54:35.738Z,3.52
2022-07-30T17:57:02.094Z,3.52
2022-07-30T17:59:28.473Z,3.63
2022-07-30T18:01:54.828Z,3.75
2022-07-30T18:04:21.198Z,3.59
2022-07-30T18:06:47.562Z,3.31
2022-07-30T18:09:13.912Z,3.34
2022-07-30T18:11:40.269Z,3.53
2022-07-30T18:14:06.632Z,3.49
2022-07-30T18:16:32.993Z,3.33
2022-07-30T18:18:59.363Z,3.55
2022-07-30T18:21:25.728Z,3.29
2022-07-30T18:23:52.097Z,3.49
2022-07-30T18:26:18.470Z,3.43
2022-07-30T18:28:44.838Z,3.37
2022-07-30T18:31:11.191Z,3.67
2022-07-30T18:33:37.576Z,3.53
2022-07-30T18:36:03.919Z,3.65
2022-07-30T18:38:30.295Z,3.43
2022-07-30T18:40:56.667Z,3.51
2022-07-30T18:43:23.036Z,3.33
2022-07-30T18:45:49.410Z,3.23
2022-07-30T18:48:15.765Z,3.35
2022-07-30T18:50:42.123Z,3.33
2022-07-30T18:53:15.648Z,3.22
2022-07-30T18:55:42.337Z,3.20
2022-07-30T18:58:08.703Z,3.39
2022-07-30T19:00:35.782Z,3.36
2022-07-30T19:03:02.277Z,3.45
2022-07-30T19:05:28.650Z,3.11
2022-07-30T19:07:58.351Z,3.41
2022-07-30T19:10:26.287Z,3.18
2022-07-30T19:12:52.876Z,3.40
2022-07-30T19:15:19.250Z,3.17
2022-07-30T19:17:46.809Z,3.18
2022-07-30T19:20:13.340Z,3.15
2022-07-30T19:22:39.708Z,3.26
2022-07-30T19:25:06.088Z,3.44
2022-07-30T19:27:32.466Z,3.26
2022-07-30T19:29:58.823Z,3.14
2022-07-30T19:32:25.188Z,3.14
2022-07-30T19:34:51.559Z,3.12
2022-07-30T19:37:17.934Z,3.15
2022-07-30T19:40:06.432Z,3.19
2022-07-30T19:42:30.687Z,3.12
2022-07-30T19:44:57.065Z,3.04
2022-07-30T19:47:24.619Z,2.91
2022-07-30T19:49:50.989Z,3.06
2022-07-30T19:52:23.645Z,3.02
2022-07-30T19:54:51.632Z,3.18
2022-07-30T19:57:18.010Z,3.02
2022-07-30T19:59:59.424Z,3.08
2022-07-30T20:02:26.722Z,3.08
2022-07-30T20:04:53.093Z,3.12
2022-07-30T20:07:21.100Z,3.10
2022-07-30T20:09:48.580Z,2.97
2022-07-30T20:12:15.561Z,3.01
2022-07-30T20:14:43.746Z,2.81
2022-07-30T20:17:10.133Z,3.15
2022-07-30T20:19:36.883Z,2.78
2022-07-30T20:22:03.252Z,3.01
2022-07-30T20:24:29.631Z,2.87
2022-07-30T20:26:55.998Z,2.85
2022-07-30T20:29:22.362Z,2.94
2022-07-30T20:31:49.822Z,2.88
2022-07-30T20:34:17.930Z,2.97
2022-07-30T20:36:44.608Z,2.84
2022-07-30T20:39:13.379Z,2.86
2022-07-30T20:41:44.617Z,2.84
2022-07-30T20:44:14.888Z,3.08
2022-07-30T20:46:50.098Z,2.78
2022-07-30T20:49:18.694Z,2.86
2022-07-30T20:51:50.467Z,2.99
2022-07-30T20:54:16.856Z,3.00
2022-07-30T20:56:43.650Z,2.73
2022-07-30T20:59:10.024Z,2.68
2022-07-30T21:01:36.390Z,2.87
2022-07-30T21:04:02.873Z,2.76
2022-07-30T21:06:29.587Z,2.93
2022-07-30T21:08:55.948Z,2.79
2022-07-30T21:11:22.975Z,2.68
2022-07-30T21:13:50.042Z,2.79
2022-07-30T21:16:18.269Z,2.94
2022-07-30T21:18:49.253Z,2.80
2022-07-30T21:21:16.778Z,2.86
2022-07-30T21:23:44.064Z,2.73
2022-07-30T21:26:13.733Z,2.68
2022-07-30T21:28:40.372Z,2.61
2022-07-30T21:31:07.233Z,3.03
2022-07-30T21:33:33.827Z,2.70
2022-07-30T21:36:00.885Z,2.67
2022-07-30T21:38:27.247Z,2.76
2022-07-30T21:40:55.013Z,2.72
2022-07-30T21:43:29.464Z,2.74
2022-07-30T21:45:56.152Z,2.84
2022-07-30T21:48:23.873Z,2.53
2022-07-30T21:50:50.262Z,2.48
2022-07-30T21:53:16.790Z,2.60
2022-07-30T21:55:56.402Z,2.60
2022-07-30T21:58:25.960Z,2.65
2022-07-30T22:00:52.905Z,2.41
2022-07-30T22:04:01.641Z,2.41
2022-07-30T22:06:05.596Z,2.53
2022-07-30T22:08:38.861Z,2.44
2022-07-30T22:11:09.007Z,2.41
2022-07-30T22:13:35.539Z,2.60
2022-07-30T22:16:17.830Z,2.51
2022-07-30T22:18:45.391Z,2.58
2022-07-30T22:21:11.763Z,2.51
2022-07-30T22:23:40.933Z,2.36
2022-07-30T22:26:21.376Z,2.52
2022-07-30T22:28:47.742Z,2.34
2022-07-30T22:31:19.036Z,2.38
2022-07-30T22:33:45.522Z,2.51
2022-07-30T22:36:11.881Z,2.53
2022-07-30T22:38:38.433Z,2.50
2022-07-30T22:41:04.793Z,2.67
2022-07-30T22:43:33.285Z,2.59
2022-07-30T22:46:14.683Z,2.42
2022-07-30T22:48:41.183Z,2.35
2022-07-30T22:51:07.577Z,2.48
2022-07-30T22:54:02.617Z,2.49
2022-07-30T22:56:24.770Z,2.45
2022-07-30T22:58:51.229Z,2.48
2022-07-30T23:01:17.629Z,2.52
2022-07-30T23:03:44.019Z,2.50
2022-07-30T23:06:14.671Z,2.43
2022-07-30T23:08:42.546Z,2.56
2022-07-30T23:11:08.911Z,2.29
2022-07-30T23:13:35.268Z,2.56
2022-07-30T23:16:01.642Z,2.36
2022-07-30T23:18:28.017Z,2.52
2022-07-30T23:20:58.525Z,2.55
2022-07-30T23:23:26.725Z,2.32
2022-07-30T23:25:57.182Z,2.37
2022-07-30T23:28:23.528Z,2.34
2022-07-30T23:30:49.888Z,2.46
2022-07-30T23:33:16.239Z,2.52
2022-07-30T23:35:42.609Z,2.45
2022-07-30T23:38:08.972Z,2.49
2022-07-30T23:40:35.329Z,2.50
2022-07-30T23:43:01.696Z,2.18
2022-07-30T23:45:28.054Z,2.58
2022-07-30T23:48:02.682Z,2.48
2022-07-30T23:50:29.399Z,2.49
2022-07-30T23:52:55.789Z,2.36
2022-07-30T23:55:22.169Z,2.31
2022-07-30T23:57:48.530Z,2.40
